sensor_id;sensor_type;location;lat;lon;timestamp;P1;durP1;ratioP1;P2;durP2;ratioP2
1699;SDS011;847;48.058;7.810;2022-07-06T00:00:48;1.93;;;1.83;;
1699;SDS011;847;48.058;7.810;2022-07-06T00:03:15;2.13;;;2.00;;
1699;SDS011;847;48.058;7.810;2022-07-06T00:05:41;2.33;;;1.90;;
1699;SDS011;847;48.058;7.810;2022-07-06T00:08:09;3.60;;;1.90;;
1699;SDS011;847;48.058;7.810;2022-07-06T00:10:36;3.20;;;1.87;;
1699;SDS011;847;48.058;7.810;2022-07-06T00:13:03;5.70;;;1.77;;
1699;SDS011;847;48.058;7.810;2022-07-06T00:15:30;2.87;;;2.27;;
1699;SDS011;847;48.058;7.810;2022-07-06T00:17:56;2.20;;;1.97;;
1699;SDS011;847;48.058;7.810;2022-07-06T00:20:23;2.20;;;2.00;;
1699;SDS011;847;48.058;7.810;2022-07-06T00:22:50;2.37;;;2.00;;
1699;SDS011;847;48.058;7.810;2022-07-06T00:25:18;3.07;;;1.97;;
1699;SDS011;847;48.058;7.810;2022-07-06T00:27:45;1.80;;;1.70;;
1699;SDS011;847;48.058;7.810;2022-07-06T00:30:11;2.20;;;2.00;;
1699;SDS011;847;48.058;7.810;2022-07-06T00:32:38;2.57;;;1.90;;
1699;SDS011;847;48.058;7.810;2022-07-06T00:35:05;2.10;;;1.70;;
1699;SDS011;847;48.058;7.810;2022-07-06T00:37:32;3.00;;;2.10;;
1699;SDS011;847;48.058;7.810;2022-07-06T00:39:59;2.40;;;2.10;;
1699;SDS011;847;48.058;7.810;2022-07-06T00:42:27;3.33;;;2.23;;
1699;SDS011;847;48.058;7.810;2022-07-06T00:44:54;3.27;;;2.27;;
1699;SDS011;847;48.058;7.810;2022-07-06T00:47:21;5.23;;;2.00;;
1699;SDS011;847;48.058;7.810;2022-07-06T00:49:47;2.43;;;2.23;;
1699;SDS011;847;48.058;7.810;2022-07-06T00:52:32;3.03;;;2.80;;
1699;SDS011;847;48.058;7.810;2022-07-06T00:54:59;2.67;;;2.17;;
1699;SDS011;847;48.058;7.810;2022-07-06T00:57:28;2.90;;;2.00;;
1699;SDS011;847;48.058;7.810;2022-07-06T00:59:55;2.57;;;2.37;;
1699;SDS011;847;48.058;7.810;2022-07-06T01:02:22;5.03;;;2.40;;
1699;SDS011;847;48.058;7.810;2022-07-06T01:04:49;2.20;;;2.10;;
1699;SDS011;847;48.058;7.810;2022-07-06T01:07:16;3.57;;;2.10;;
1699;SDS011;847;48.058;7.810;2022-07-06T01:09:43;2.03;;;1.93;;
1699;SDS011;847;48.058;7.810;2022-07-06T01:12:10;3.33;;;2.27;;
1699;SDS011;847;48.058;7.810;2022-07-06T01:14:38;4.43;;;2.20;;
1699;SDS011;847;48.058;7.810;2022-07-06T01:17:05;2.30;;;2.17;;
1699;SDS011;847;48.058;7.810;2022-07-06T01:19:32;3.27;;;1.80;;
1699;SDS011;847;48.058;7.810;2022-07-06T01:22:01;2.07;;;1.97;;
1699;SDS011;847;48.058;7.810;2022-07-06T01:24:28;3.83;;;2.50;;
1699;SDS011;847;48.058;7.810;2022-07-06T01:26:55;3.40;;;2.30;;
1699;SDS011;847;48.058;7.810;2022-07-06T01:29:21;2.90;;;2.63;;
1699;SDS011;847;48.058;7.810;2022-07-06T01:31:49;2.00;;;1.90;;
1699;SDS011;847;48.058;7.810;2022-07-06T01:34:17;3.40;;;2.40;;
1699;SDS011;847;48.058;7.810;2022-07-06T01:36:44;5.77;;;2.63;;
1699;SDS011;847;48.058;7.810;2022-07-06T01:39:13;5.00;;;2.50;;
1699;SDS011;847;48.058;7.810;2022-07-06T01:41:39;2.80;;;2.60;;
1699;SDS011;847;48.058;7.810;2022-07-06T01:44:06;4.30;;;2.70;;
1699;SDS011;847;48.058;7.810;2022-07-06T01:46:33;4.77;;;2.73;;
1699;SDS011;847;48.058;7.810;2022-07-06T01:49:00;2.90;;;2.43;;
1699;SDS011;847;48.058;7.810;2022-07-06T01:51:27;2.70;;;2.50;;
1699;SDS011;847;48.058;7.810;2022-07-06T01:53:54;3.07;;;2.33;;
1699;SDS011;847;48.058;7.810;2022-07-06T01:56:22;3.17;;;2.27;;
1699;SDS011;847;48.058;7.810;2022-07-06T01:58:49;2.93;;;2.17;;
1699;SDS011;847;48.058;7.810;2022-07-06T02:01:16;2.47;;;2.27;;
1699;SDS011;847;48.058;7.810;2022-07-06T02:03:44;2.77;;;2.50;;
1699;SDS011;847;48.058;7.810;2022-07-06T02:06:12;5.13;;;2.30;;
1699;SDS011;847;48.058;7.810;2022-07-06T02:08:39;3.80;;;2.40;;
1699;SDS011;847;48.058;7.810;2022-07-06T02:11:08;3.40;;;2.27;;
1699;SDS011;847;48.058;7.810;2022-07-06T02:13:37;3.13;;;2.63;;
1699;SDS011;847;48.058;7.810;2022-07-06T02:16:04;3.07;;;2.87;;
1699;SDS011;847;48.058;7.810;2022-07-06T02:18:30;2.43;;;2.23;;
1699;SDS011;847;48.058;7.810;2022-07-06T02:20:57;4.13;;;3.00;;
1699;SDS011;847;48.058;7.810;2022-07-06T02:23:24;4.13;;;2.53;;
1699;SDS011;847;48.058;7.810;2022-07-06T02:25:51;4.23;;;2.43;;
1699;SDS011;847;48.058;7.810;2022-07-06T02:28:18;2.60;;;2.40;;
1699;SDS011;847;48.058;7.810;2022-07-06T02:30:46;2.80;;;2.43;;
1699;SDS011;847;48.058;7.810;2022-07-06T02:33:13;4.60;;;2.80;;
1699;SDS011;847;48.058;7.810;2022-07-06T02:35:39;3.77;;;3.40;;
1699;SDS011;847;48.058;7.810;2022-07-06T02:38:08;3.10;;;2.90;;
1699;SDS011;847;48.058;7.810;2022-07-06T02:40:35;3.23;;;2.50;;
1699;SDS011;847;48.058;7.810;2022-07-06T02:43:01;3.53;;;2.70;;
1699;SDS011;847;48.058;7.810;2022-07-06T02:45:28;3.20;;;2.90;;
1699;SDS011;847;48.058;7.810;2022-07-06T02:47:56;3.77;;;2.43;;
1699;SDS011;847;48.058;7.810;2022-07-06T02:50:23;3.13;;;2.70;;
1699;SDS011;847;48.058;7.810;2022-07-06T02:52:50;2.90;;;2.60;;
1699;SDS011;847;48.058;7.810;2022-07-06T02:55:17;2.70;;;2.50;;
1699;SDS011;847;48.058;7.810;2022-07-06T02:57:44;3.10;;;2.63;;
1699;SDS011;847;48.058;7.810;2022-07-06T03:00:11;3.40;;;2.73;;
1699;SDS011;847;48.058;7.810;2022-07-06T03:02:38;5.23;;;2.90;;
1699;SDS011;847;48.058;7.810;2022-07-06T03:05:07;2.60;;;2.40;;
1699;SDS011;847;48.058;7.810;2022-07-06T03:07:34;2.77;;;2.57;;
1699;SDS011;847;48.058;7.810;2022-07-06T03:10:01;3.70;;;2.93;;
1699;SDS011;847;48.058;7.810;2022-07-06T03:12:28;4.27;;;2.50;;
1699;SDS011;847;48.058;7.810;2022-07-06T03:14:54;3.80;;;2.43;;
1699;SDS011;847;48.058;7.810;2022-07-06T03:17:21;4.60;;;2.23;;
1699;SDS011;847;48.058;7.810;2022-07-06T03:19:48;3.17;;;2.20;;
1699;SDS011;847;48.058;7.810;2022-07-06T03:22:16;3.00;;;2.30;;
1699;SDS011;847;48.058;7.810;2022-07-06T03:24:42;3.43;;;2.60;;
1699;SDS011;847;48.058;7.810;2022-07-06T03:27:09;2.80;;;2.47;;
1699;SDS011;847;48.058;7.810;2022-07-06T03:29:36;6.43;;;2.50;;
1699;SDS011;847;48.058;7.810;2022-07-06T03:32:03;4.70;;;2.90;;
1699;SDS011;847;48.058;7.810;2022-07-06T03:34:30;3.30;;;3.00;;
1699;SDS011;847;48.058;7.810;2022-07-06T03:36:56;3.10;;;2.90;;
1699;SDS011;847;48.058;7.810;2022-07-06T03:39:24;6.47;;;2.67;;
1699;SDS011;847;48.058;7.810;2022-07-06T03:41:51;4.70;;;2.90;;
1699;SDS011;847;48.058;7.810;2022-07-06T03:44:18;3.27;;;2.73;;
1699;SDS011;847;48.058;7.810;2022-07-06T03:46:45;3.17;;;2.83;;
1699;SDS011;847;48.058;7.810;2022-07-06T03:49:11;3.33;;;3.00;;
1699;SDS011;847;48.058;7.810;2022-07-06T03:51:38;2.70;;;2.43;;
1699;SDS011;847;48.058;7.810;2022-07-06T03:54:05;5.80;;;3.00;;
1699;SDS011;847;48.058;7.810;2022-07-06T03:56:33;3.33;;;2.73;;
1699;SDS011;847;48.058;7.810;2022-07-06T03:59:02;3.20;;;2.90;;
1699;SDS011;847;48.058;7.810;2022-07-06T04:01:29;6.57;;;3.07;;
1699;SDS011;847;48.058;7.810;2022-07-06T04:03:56;3.73;;;2.50;;
1699;SDS011;847;48.058;7.810;2022-07-06T04:06:23;6.13;;;2.70;;
1699;SDS011;847;48.058;7.810;2022-07-06T04:08:50;3.40;;;2.67;;
1699;SDS011;847;48.058;7.810;2022-07-06T04:11:17;3.73;;;2.77;;
1699;SDS011;847;48.058;7.810;2022-07-06T04:13:45;3.03;;;2.73;;
1699;SDS011;847;48.058;7.810;2022-07-06T04:16:12;5.57;;;2.80;;
1699;SDS011;847;48.058;7.810;2022-07-06T04:18:38;3.40;;;3.10;;
1699;SDS011;847;48.058;7.810;2022-07-06T04:21:05;5.93;;;3.27;;
1699;SDS011;847;48.058;7.810;2022-07-06T04:23:32;4.00;;;3.53;;
1699;SDS011;847;48.058;7.810;2022-07-06T04:25:59;7.70;;;6.77;;
1699;SDS011;847;48.058;7.810;2022-07-06T04:28:26;3.80;;;3.50;;
1699;SDS011;847;48.058;7.810;2022-07-06T04:30:54;5.50;;;3.80;;
1699;SDS011;847;48.058;7.810;2022-07-06T04:33:21;3.60;;;3.07;;
1699;SDS011;847;48.058;7.810;2022-07-06T04:35:48;3.67;;;3.37;;
1699;SDS011;847;48.058;7.810;2022-07-06T04:38:14;3.60;;;3.30;;
1699;SDS011;847;48.058;7.810;2022-07-06T04:40:41;2.73;;;2.53;;
1699;SDS011;847;48.058;7.810;2022-07-06T04:43:11;5.30;;;3.73;;
1699;SDS011;847;48.058;7.810;2022-07-06T04:45:37;5.80;;;2.93;;
1699;SDS011;847;48.058;7.810;2022-07-06T04:48:06;2.97;;;2.77;;
1699;SDS011;847;48.058;7.810;2022-07-06T04:50:33;3.10;;;2.80;;
1699;SDS011;847;48.058;7.810;2022-07-06T04:53:00;5.00;;;3.67;;
1699;SDS011;847;48.058;7.810;2022-07-06T04:55:27;4.40;;;3.17;;
1699;SDS011;847;48.058;7.810;2022-07-06T04:57:53;3.50;;;3.20;;
1699;SDS011;847;48.058;7.810;2022-07-06T05:00:20;3.60;;;3.30;;
1699;SDS011;847;48.058;7.810;2022-07-06T05:02:47;3.60;;;3.30;;
1699;SDS011;847;48.058;7.810;2022-07-06T05:05:15;4.13;;;3.73;;
1699;SDS011;847;48.058;7.810;2022-07-06T05:07:42;4.73;;;3.60;;
1699;SDS011;847;48.058;7.810;2022-07-06T05:10:09;3.87;;;3.47;;
1699;SDS011;847;48.058;7.810;2022-07-06T05:12:37;3.50;;;3.20;;
1699;SDS011;847;48.058;7.810;2022-07-06T05:15:04;5.00;;;3.97;;
1699;SDS011;847;48.058;7.810;2022-07-06T05:17:32;5.03;;;3.37;;
1699;SDS011;847;48.058;7.810;2022-07-06T05:19:59;5.37;;;3.90;;
1699;SDS011;847;48.058;7.810;2022-07-06T05:22:27;3.87;;;3.47;;
1699;SDS011;847;48.058;7.810;2022-07-06T05:24:54;4.30;;;3.90;;
1699;SDS011;847;48.058;7.810;2022-07-06T05:27:21;3.93;;;3.57;;
1699;SDS011;847;48.058;7.810;2022-07-06T05:29:49;13.87;;;4.47;;
1699;SDS011;847;48.058;7.810;2022-07-06T05:32:15;4.03;;;3.43;;
1699;SDS011;847;48.058;7.810;2022-07-06T05:34:42;4.60;;;4.20;;
1699;SDS011;847;48.058;7.810;2022-07-06T05:37:09;5.20;;;4.50;;
1699;SDS011;847;48.058;7.810;2022-07-06T05:39:37;4.90;;;4.03;;
1699;SDS011;847;48.058;7.810;2022-07-06T05:42:04;5.20;;;3.80;;
1699;SDS011;847;48.058;7.810;2022-07-06T05:44:31;6.10;;;4.30;;
1699;SDS011;847;48.058;7.810;2022-07-06T05:46:58;4.90;;;4.33;;
1699;SDS011;847;48.058;7.810;2022-07-06T05:49:39;5.47;;;4.53;;
1699;SDS011;847;48.058;7.810;2022-07-06T05:52:23;4.53;;;4.13;;
1699;SDS011;847;48.058;7.810;2022-07-06T05:54:51;7.20;;;4.53;;
1699;SDS011;847;48.058;7.810;2022-07-06T05:57:18;4.60;;;4.20;;
1699;SDS011;847;48.058;7.810;2022-07-06T05:59:44;6.93;;;4.93;;
1699;SDS011;847;48.058;7.810;2022-07-06T06:02:11;5.47;;;4.67;;
1699;SDS011;847;48.058;7.810;2022-07-06T06:04:38;5.27;;;4.87;;
1699;SDS011;847;48.058;7.810;2022-07-06T06:07:04;7.47;;;4.97;;
1699;SDS011;847;48.058;7.810;2022-07-06T06:09:31;6.50;;;5.23;;
1699;SDS011;847;48.058;7.810;2022-07-06T06:11:59;5.93;;;5.20;;
1699;SDS011;847;48.058;7.810;2022-07-06T06:14:26;6.27;;;5.00;;
1699;SDS011;847;48.058;7.810;2022-07-06T06:16:53;5.10;;;4.57;;
1699;SDS011;847;48.058;7.810;2022-07-06T06:19:19;5.30;;;4.70;;
1699;SDS011;847;48.058;7.810;2022-07-06T06:21:46;5.93;;;5.37;;
1699;SDS011;847;48.058;7.810;2022-07-06T06:24:13;5.90;;;5.20;;
1699;SDS011;847;48.058;7.810;2022-07-06T06:26:39;8.47;;;5.60;;
1699;SDS011;847;48.058;7.810;2022-07-06T06:29:08;6.43;;;5.53;;
1699;SDS011;847;48.058;7.810;2022-07-06T06:31:34;5.40;;;4.70;;
1699;SDS011;847;48.058;7.810;2022-07-06T06:34:02;9.40;;;4.73;;
1699;SDS011;847;48.058;7.810;2022-07-06T06:36:28;6.30;;;5.70;;
1699;SDS011;847;48.058;7.810;2022-07-06T06:38:55;5.20;;;4.80;;
1699;SDS011;847;48.058;7.810;2022-07-06T06:41:22;5.30;;;4.90;;
1699;SDS011;847;48.058;7.810;2022-07-06T06:43:49;6.90;;;5.20;;
1699;SDS011;847;48.058;7.810;2022-07-06T06:46:17;5.93;;;5.10;;
1699;SDS011;847;48.058;7.810;2022-07-06T06:48:44;5.80;;;5.30;;
1699;SDS011;847;48.058;7.810;2022-07-06T06:51:10;5.20;;;4.70;;
1699;SDS011;847;48.058;7.810;2022-07-06T06:53:37;5.37;;;4.70;;
1699;SDS011;847;48.058;7.810;2022-07-06T06:56:04;5.13;;;4.70;;
1699;SDS011;847;48.058;7.810;2022-07-06T06:58:31;5.10;;;4.60;;
1699;SDS011;847;48.058;7.810;2022-07-06T07:00:57;6.50;;;4.83;;
1699;SDS011;847;48.058;7.810;2022-07-06T07:03:25;8.40;;;4.40;;
1699;SDS011;847;48.058;7.810;2022-07-06T07:05:52;5.97;;;5.03;;
1699;SDS011;847;48.058;7.810;2022-07-06T07:08:19;5.07;;;4.67;;
1699;SDS011;847;48.058;7.810;2022-07-06T07:10:46;6.07;;;5.47;;
1699;SDS011;847;48.058;7.810;2022-07-06T07:13:12;7.10;;;5.43;;
1699;SDS011;847;48.058;7.810;2022-07-06T07:15:39;6.30;;;5.27;;
1699;SDS011;847;48.058;7.810;2022-07-06T07:18:06;6.10;;;5.10;;
1699;SDS011;847;48.058;7.810;2022-07-06T07:20:34;8.43;;;4.43;;
1699;SDS011;847;48.058;7.810;2022-07-06T07:23:01;5.80;;;5.13;;
1699;SDS011;847;48.058;7.810;2022-07-06T07:25:28;8.10;;;4.93;;
1699;SDS011;847;48.058;7.810;2022-07-06T07:27:54;9.70;;;4.73;;
1699;SDS011;847;48.058;7.810;2022-07-06T07:30:21;7.10;;;4.10;;
1699;SDS011;847;48.058;7.810;2022-07-06T07:35:47;5.17;;;4.40;;
1699;SDS011;847;48.058;7.810;2022-07-06T07:38:13;9.10;;;4.77;;
1699;SDS011;847;48.058;7.810;2022-07-06T07:40:40;5.83;;;4.00;;
1699;SDS011;847;48.058;7.810;2022-07-06T07:43:07;4.40;;;4.00;;
1699;SDS011;847;48.058;7.810;2022-07-06T07:45:33;6.30;;;4.57;;
1699;SDS011;847;48.058;7.810;2022-07-06T07:48:00;6.10;;;4.60;;
1699;SDS011;847;48.058;7.810;2022-07-06T07:50:27;4.50;;;4.00;;
1699;SDS011;847;48.058;7.810;2022-07-06T07:52:55;5.93;;;4.40;;
1699;SDS011;847;48.058;7.810;2022-07-06T07:55:22;8.03;;;4.43;;
1699;SDS011;847;48.058;7.810;2022-07-06T07:57:49;4.10;;;3.70;;
1699;SDS011;847;48.058;7.810;2022-07-06T08:00:16;6.03;;;3.97;;
1699;SDS011;847;48.058;7.810;2022-07-06T08:02:42;5.67;;;4.00;;
1699;SDS011;847;48.058;7.810;2022-07-06T08:05:09;4.20;;;3.80;;
1699;SDS011;847;48.058;7.810;2022-07-06T08:07:38;4.20;;;3.87;;
1699;SDS011;847;48.058;7.810;2022-07-06T08:10:07;4.53;;;3.90;;
1699;SDS011;847;48.058;7.810;2022-07-06T08:12:35;6.30;;;4.17;;
1699;SDS011;847;48.058;7.810;2022-07-06T08:15:02;4.77;;;4.27;;
1699;SDS011;847;48.058;7.810;2022-07-06T08:17:29;5.00;;;4.23;;
1699;SDS011;847;48.058;7.810;2022-07-06T08:19:56;6.47;;;4.20;;
1699;SDS011;847;48.058;7.810;2022-07-06T08:22:23;4.03;;;3.70;;
1699;SDS011;847;48.058;7.810;2022-07-06T08:24:52;5.50;;;4.10;;
1699;SDS011;847;48.058;7.810;2022-07-06T08:27:20;4.17;;;3.63;;
1699;SDS011;847;48.058;7.810;2022-07-06T08:29:46;4.83;;;3.80;;
1699;SDS011;847;48.058;7.810;2022-07-06T08:32:13;8.10;;;4.73;;
1699;SDS011;847;48.058;7.810;2022-07-06T08:34:40;6.20;;;3.97;;
1699;SDS011;847;48.058;7.810;2022-07-06T08:37:09;4.03;;;3.57;;
1699;SDS011;847;48.058;7.810;2022-07-06T08:39:35;5.63;;;3.90;;
1699;SDS011;847;48.058;7.810;2022-07-06T08:42:02;4.30;;;3.37;;
1699;SDS011;847;48.058;7.810;2022-07-06T08:44:31;4.47;;;3.60;;
1699;SDS011;847;48.058;7.810;2022-07-06T08:46:59;7.67;;;3.40;;
1699;SDS011;847;48.058;7.810;2022-07-06T08:49:30;3.97;;;3.53;;
1699;SDS011;847;48.058;7.810;2022-07-06T08:52:00;9.33;;;4.30;;
1699;SDS011;847;48.058;7.810;2022-07-06T08:54:28;3.73;;;3.43;;
1699;SDS011;847;48.058;7.810;2022-07-06T08:56:55;5.60;;;4.30;;
1699;SDS011;847;48.058;7.810;2022-07-06T08:59:24;5.27;;;4.17;;
1699;SDS011;847;48.058;7.810;2022-07-06T09:01:52;4.13;;;3.60;;
1699;SDS011;847;48.058;7.810;2022-07-06T09:04:21;4.90;;;3.77;;
1699;SDS011;847;48.058;7.810;2022-07-06T09:06:48;6.53;;;3.30;;
1699;SDS011;847;48.058;7.810;2022-07-06T09:09:17;4.53;;;3.77;;
1699;SDS011;847;48.058;7.810;2022-07-06T09:11:46;5.60;;;3.60;;
1699;SDS011;847;48.058;7.810;2022-07-06T09:14:13;5.60;;;3.53;;
1699;SDS011;847;48.058;7.810;2022-07-06T09:16:40;4.60;;;3.47;;
1699;SDS011;847;48.058;7.810;2022-07-06T09:19:09;4.97;;;3.63;;
1699;SDS011;847;48.058;7.810;2022-07-06T09:21:37;7.30;;;3.73;;
1699;SDS011;847;48.058;7.810;2022-07-06T09:24:05;4.27;;;3.40;;
1699;SDS011;847;48.058;7.810;2022-07-06T09:26:33;4.33;;;3.67;;
1699;SDS011;847;48.058;7.810;2022-07-06T09:29:01;7.60;;;3.93;;
1699;SDS011;847;48.058;7.810;2022-07-06T09:31:28;6.90;;;3.80;;
1699;SDS011;847;48.058;7.810;2022-07-06T09:33:56;5.70;;;3.63;;
1699;SDS011;847;48.058;7.810;2022-07-06T09:39:20;4.37;;;3.30;;
1699;SDS011;847;48.058;7.810;2022-07-06T09:41:51;3.63;;;3.33;;
1699;SDS011;847;48.058;7.810;2022-07-06T09:44:24;3.53;;;3.23;;
1699;SDS011;847;48.058;7.810;2022-07-06T09:46:52;4.93;;;3.00;;
1699;SDS011;847;48.058;7.810;2022-07-06T09:49:21;4.10;;;3.60;;
1699;SDS011;847;48.058;7.810;2022-07-06T09:51:49;6.73;;;3.60;;
1699;SDS011;847;48.058;7.810;2022-07-06T09:54:18;4.13;;;3.30;;
1699;SDS011;847;48.058;7.810;2022-07-06T09:56:47;4.27;;;3.47;;
1699;SDS011;847;48.058;7.810;2022-07-06T09:59:17;6.60;;;3.70;;
1699;SDS011;847;48.058;7.810;2022-07-06T10:01:46;3.57;;;3.00;;
1699;SDS011;847;48.058;7.810;2022-07-06T10:04:13;4.97;;;3.17;;
1699;SDS011;847;48.058;7.810;2022-07-06T10:06:43;4.30;;;3.90;;
1699;SDS011;847;48.058;7.810;2022-07-06T10:09:12;5.73;;;3.10;;
1699;SDS011;847;48.058;7.810;2022-07-06T10:11:40;5.37;;;3.07;;
1699;SDS011;847;48.058;7.810;2022-07-06T10:14:08;6.00;;;3.20;;
1699;SDS011;847;48.058;7.810;2022-07-06T10:16:39;4.37;;;3.77;;
1699;SDS011;847;48.058;7.810;2022-07-06T10:19:06;3.53;;;2.93;;
1699;SDS011;847;48.058;7.810;2022-07-06T10:21:35;3.80;;;2.87;;
1699;SDS011;847;48.058;7.810;2022-07-06T10:24:03;4.40;;;2.93;;
1699;SDS011;847;48.058;7.810;2022-07-06T10:26:33;4.73;;;3.10;;
1699;SDS011;847;48.058;7.810;2022-07-06T10:29:00;4.27;;;3.60;;
1699;SDS011;847;48.058;7.810;2022-07-06T10:31:28;5.07;;;3.67;;
1699;SDS011;847;48.058;7.810;2022-07-06T10:33:56;6.97;;;2.83;;
1699;SDS011;847;48.058;7.810;2022-07-06T10:36:25;5.87;;;3.20;;
1699;SDS011;847;48.058;7.810;2022-07-06T10:38:53;5.70;;;3.00;;
1699;SDS011;847;48.058;7.810;2022-07-06T10:41:29;4.93;;;3.00;;
1699;SDS011;847;48.058;7.810;2022-07-06T10:43:57;3.17;;;2.83;;
1699;SDS011;847;48.058;7.810;2022-07-06T10:46:40;5.43;;;2.87;;
1699;SDS011;847;48.058;7.810;2022-07-06T10:49:14;5.50;;;2.70;;
1699;SDS011;847;48.058;7.810;2022-07-06T10:51:42;4.23;;;2.90;;
1699;SDS011;847;48.058;7.810;2022-07-06T10:54:08;2.80;;;2.60;;
1699;SDS011;847;48.058;7.810;2022-07-06T10:56:36;3.43;;;3.20;;
1699;SDS011;847;48.058;7.810;2022-07-06T10:59:09;4.67;;;2.83;;
1699;SDS011;847;48.058;7.810;2022-07-06T11:01:37;2.70;;;2.50;;
1699;SDS011;847;48.058;7.810;2022-07-06T11:04:05;5.87;;;2.90;;
1699;SDS011;847;48.058;7.810;2022-07-06T11:06:34;3.57;;;3.27;;
1699;SDS011;847;48.058;7.810;2022-07-06T11:09:02;4.23;;;3.20;;
1699;SDS011;847;48.058;7.810;2022-07-06T11:11:37;2.90;;;2.50;;
1699;SDS011;847;48.058;7.810;2022-07-06T11:14:07;4.37;;;3.03;;
1699;SDS011;847;48.058;7.810;2022-07-06T11:16:37;6.73;;;3.00;;
1699;SDS011;847;48.058;7.810;2022-07-06T11:19:06;3.00;;;2.70;;
1699;SDS011;847;48.058;7.810;2022-07-06T11:21:36;6.73;;;2.90;;
1699;SDS011;847;48.058;7.810;2022-07-06T11:24:04;3.57;;;3.27;;
1699;SDS011;847;48.058;7.810;2022-07-06T11:26:33;3.07;;;2.77;;
1699;SDS011;847;48.058;7.810;2022-07-06T11:29:02;3.77;;;3.23;;
1699;SDS011;847;48.058;7.810;2022-07-06T11:31:32;3.00;;;2.70;;
1699;SDS011;847;48.058;7.810;2022-07-06T11:34:01;4.77;;;2.93;;
1699;SDS011;847;48.058;7.810;2022-07-06T11:36:28;5.50;;;3.03;;
1699;SDS011;847;48.058;7.810;2022-07-06T11:38:55;3.00;;;2.80;;
1699;SDS011;847;48.058;7.810;2022-07-06T11:41:22;10.50;;;3.20;;
1699;SDS011;847;48.058;7.810;2022-07-06T11:43:49;3.93;;;2.97;;
1699;SDS011;847;48.058;7.810;2022-07-06T11:46:17;5.07;;;3.07;;
1699;SDS011;847;48.058;7.810;2022-07-06T11:48:53;6.20;;;3.50;;
1699;SDS011;847;48.058;7.810;2022-07-06T11:51:23;3.90;;;3.17;;
1699;SDS011;847;48.058;7.810;2022-07-06T11:53:51;4.20;;;2.87;;
1699;SDS011;847;48.058;7.810;2022-07-06T11:56:19;4.63;;;3.10;;
1699;SDS011;847;48.058;7.810;2022-07-06T11:58:50;3.20;;;2.83;;
1699;SDS011;847;48.058;7.810;2022-07-06T12:01:18;4.97;;;3.50;;
1699;SDS011;847;48.058;7.810;2022-07-06T12:03:45;3.20;;;2.90;;
1699;SDS011;847;48.058;7.810;2022-07-06T12:06:13;6.23;;;3.43;;
1699;SDS011;847;48.058;7.810;2022-07-06T12:08:43;3.47;;;3.17;;
1699;SDS011;847;48.058;7.810;2022-07-06T12:11:16;3.57;;;3.27;;
1699;SDS011;847;48.058;7.810;2022-07-06T12:13:45;3.50;;;3.17;;
1699;SDS011;847;48.058;7.810;2022-07-06T12:16:12;4.80;;;4.40;;
1699;SDS011;847;48.058;7.810;2022-07-06T12:18:41;3.43;;;3.13;;
1699;SDS011;847;48.058;7.810;2022-07-06T12:21:09;3.37;;;3.07;;
1699;SDS011;847;48.058;7.810;2022-07-06T12:23:39;3.50;;;3.20;;
1699;SDS011;847;48.058;7.810;2022-07-06T12:26:08;3.73;;;2.90;;
1699;SDS011;847;48.058;7.810;2022-07-06T12:28:35;3.50;;;2.87;;
1699;SDS011;847;48.058;7.810;2022-07-06T12:31:02;4.03;;;2.87;;
1699;SDS011;847;48.058;7.810;2022-07-06T12:33:29;6.23;;;3.30;;
1699;SDS011;847;48.058;7.810;2022-07-06T12:35:56;5.77;;;3.20;;
1699;SDS011;847;48.058;7.810;2022-07-06T12:38:23;3.07;;;2.77;;
1699;SDS011;847;48.058;7.810;2022-07-06T12:40:50;3.80;;;3.37;;
1699;SDS011;847;48.058;7.810;2022-07-06T12:48:52;3.60;;;3.30;;
1699;SDS011;847;48.058;7.810;2022-07-06T12:51:19;4.23;;;3.83;;
1699;SDS011;847;48.058;7.810;2022-07-06T12:53:46;3.17;;;2.87;;
1699;SDS011;847;48.058;7.810;2022-07-06T12:56:13;5.90;;;3.10;;
1699;SDS011;847;48.058;7.810;2022-07-06T12:58:55;3.60;;;3.30;;
1699;SDS011;847;48.058;7.810;2022-07-06T13:01:22;6.67;;;2.80;;
1699;SDS011;847;48.058;7.810;2022-07-06T13:03:53;6.00;;;2.93;;
1699;SDS011;847;48.058;7.810;2022-07-06T13:06:30;3.53;;;2.80;;
1699;SDS011;847;48.058;7.810;2022-07-06T13:08:58;4.47;;;3.43;;
1699;SDS011;847;48.058;7.810;2022-07-06T13:11:24;5.13;;;3.63;;
1699;SDS011;847;48.058;7.810;2022-07-06T13:13:51;4.00;;;2.80;;
1699;SDS011;847;48.058;7.810;2022-07-06T13:16:19;3.83;;;2.80;;
1699;SDS011;847;48.058;7.810;2022-07-06T13:18:49;4.53;;;2.63;;
1699;SDS011;847;48.058;7.810;2022-07-06T13:21:16;3.27;;;2.70;;
1699;SDS011;847;48.058;7.810;2022-07-06T13:23:42;6.10;;;3.13;;
1699;SDS011;847;48.058;7.810;2022-07-06T13:26:09;6.90;;;3.23;;
1699;SDS011;847;48.058;7.810;2022-07-06T13:28:36;12.77;;;3.53;;
1699;SDS011;847;48.058;7.810;2022-07-06T13:31:03;4.33;;;2.93;;
1699;SDS011;847;48.058;7.810;2022-07-06T13:33:33;3.13;;;2.83;;
1699;SDS011;847;48.058;7.810;2022-07-06T13:36:00;3.00;;;2.70;;
1699;SDS011;847;48.058;7.810;2022-07-06T13:38:27;2.90;;;2.40;;
1699;SDS011;847;48.058;7.810;2022-07-06T13:40:54;3.80;;;2.77;;
1699;SDS011;847;48.058;7.810;2022-07-06T13:43:20;2.90;;;2.70;;
1699;SDS011;847;48.058;7.810;2022-07-06T13:45:47;2.70;;;2.40;;
1699;SDS011;847;48.058;7.810;2022-07-06T13:48:14;13.47;;;3.57;;
1699;SDS011;847;48.058;7.810;2022-07-06T13:50:43;4.27;;;3.03;;
1699;SDS011;847;48.058;7.810;2022-07-06T13:53:09;4.80;;;3.00;;
1699;SDS011;847;48.058;7.810;2022-07-06T13:55:36;3.00;;;2.70;;
1699;SDS011;847;48.058;7.810;2022-07-06T13:58:03;3.13;;;2.83;;
1699;SDS011;847;48.058;7.810;2022-07-06T14:00:29;5.30;;;2.67;;
1699;SDS011;847;48.058;7.810;2022-07-06T14:02:57;4.23;;;2.50;;
1699;SDS011;847;48.058;7.810;2022-07-06T14:05:24;2.50;;;2.30;;
1699;SDS011;847;48.058;7.810;2022-07-06T14:07:52;14.23;;;2.80;;
1699;SDS011;847;48.058;7.810;2022-07-06T14:10:19;2.87;;;2.67;;
1699;SDS011;847;48.058;7.810;2022-07-06T14:12:45;3.97;;;2.87;;
1699;SDS011;847;48.058;7.810;2022-07-06T14:15:12;3.50;;;2.80;;
1699;SDS011;847;48.058;7.810;2022-07-06T14:17:39;2.73;;;2.53;;
1699;SDS011;847;48.058;7.810;2022-07-06T14:20:06;2.57;;;2.37;;
1699;SDS011;847;48.058;7.810;2022-07-06T14:22:33;3.27;;;2.87;;
1699;SDS011;847;48.058;7.810;2022-07-06T14:25:02;3.07;;;2.20;;
1699;SDS011;847;48.058;7.810;2022-07-06T14:27:30;7.07;;;2.60;;
1699;SDS011;847;48.058;7.810;2022-07-06T14:29:57;2.77;;;2.47;;
1699;SDS011;847;48.058;7.810;2022-07-06T14:32:24;2.80;;;2.37;;
1699;SDS011;847;48.058;7.810;2022-07-06T14:34:50;3.47;;;2.80;;
1699;SDS011;847;48.058;7.810;2022-07-06T14:37:17;2.40;;;2.13;;
1699;SDS011;847;48.058;7.810;2022-07-06T14:39:44;3.00;;;2.40;;
1699;SDS011;847;48.058;7.810;2022-07-06T14:42:12;3.87;;;2.30;;
1699;SDS011;847;48.058;7.810;2022-07-06T14:44:39;3.67;;;2.77;;
1699;SDS011;847;48.058;7.810;2022-07-06T14:47:06;2.70;;;2.43;;
1699;SDS011;847;48.058;7.810;2022-07-06T14:49:33;3.20;;;2.00;;
1699;SDS011;847;48.058;7.810;2022-07-06T14:51:59;4.40;;;2.50;;
1699;SDS011;847;48.058;7.810;2022-07-06T14:54:26;4.03;;;2.53;;
1699;SDS011;847;48.058;7.810;2022-07-06T14:56:53;2.70;;;2.30;;
1699;SDS011;847;48.058;7.810;2022-07-06T14:59:21;3.20;;;2.33;;
1699;SDS011;847;48.058;7.810;2022-07-06T15:01:48;5.30;;;2.60;;
1699;SDS011;847;48.058;7.810;2022-07-06T15:04:14;3.53;;;2.27;;
1699;SDS011;847;48.058;7.810;2022-07-06T15:06:41;3.57;;;2.43;;
1699;SDS011;847;48.058;7.810;2022-07-06T15:09:08;2.60;;;2.40;;
1699;SDS011;847;48.058;7.810;2022-07-06T15:11:35;2.60;;;2.40;;
1699;SDS011;847;48.058;7.810;2022-07-06T15:14:01;6.70;;;2.43;;
1699;SDS011;847;48.058;7.810;2022-07-06T15:16:32;2.67;;;2.47;;
1699;SDS011;847;48.058;7.810;2022-07-06T15:18:59;3.93;;;2.60;;
1699;SDS011;847;48.058;7.810;2022-07-06T15:21:26;2.70;;;2.50;;
1699;SDS011;847;48.058;7.810;2022-07-06T15:23:52;4.13;;;2.40;;
1699;SDS011;847;48.058;7.810;2022-07-06T15:26:19;2.47;;;2.27;;
1699;SDS011;847;48.058;7.810;2022-07-06T15:28:46;2.60;;;2.40;;
1699;SDS011;847;48.058;7.810;2022-07-06T15:31:13;3.20;;;2.27;;
1699;SDS011;847;48.058;7.810;2022-07-06T15:33:41;3.00;;;2.27;;
1699;SDS011;847;48.058;7.810;2022-07-06T15:36:08;3.63;;;2.27;;
1699;SDS011;847;48.058;7.810;2022-07-06T15:38:35;3.90;;;2.63;;
1699;SDS011;847;48.058;7.810;2022-07-06T15:41:02;2.90;;;2.27;;
1699;SDS011;847;48.058;7.810;2022-07-06T15:43:29;2.00;;;1.90;;